Piedras Negras, Mexico

3:45 PM EST on August 25, 2016 (GMT -0500)
Del Rio Laughlin AFB | | Change Station

Elev 1083 ft 29.36 °N, 100.78 °W | Updated 47 minutes ago

Partly Cloudy
Partly Cloudy
90 °F
Feels Like 96 °F
N
14
Wind Variable Wind from SSE

Today
High -- | Low -- °F
--% Chance of Precip.
Yesterday
High -- | Low -- °F
Precip. -- in
Pressure 29.97 in
Visibility 10.0 miles
Clouds Few 5000 ft
Heat Index 96 °F
Dew Point 69 °F
Humidity 50%
Rainfall 0.00 in
Snow Depth Not available.
7:16 AM 8:10 PM
Last Quarter, 42% visible
METAR KDLF 251958Z 16012KT 10SM FEW050 33/21 A3001 RMK AO2A SLP148 T03250207
Pressure 29.97 in
Visibility 10.0 miles
Clouds Few 5000 ft
Heat Index 96 °F
Dew Point 69 °F
Humidity 50%
Rainfall 0.00 in
Snow Depth Not available.
7:16 AM 8:10 PM
Last Quarter, 42% visible
METAR KDLF 251958Z 16012KT 10SM FEW050 33/21 A3001 RMK AO2A SLP148 T03250207
A tropical disturbance pushing toward the Bahamas, is expected to develop into a tropical depression or storm, and will likely target Florida and the Gulf Coast this weekend into next week.

Right now, the disturbance remains a broad area of low pressure pushing through the Dominican Republic and Haiti, headed toward the southeast Bahamas. Rainfall totals over 3 inches (with locally higher amounts) are expected in HispaƱiola, particularly over elevated terrain.

10-Day Weather Forecast

Almanac

Astronomy

Aug. 25, 2016 Rise Set
Actual Time
Civil Twilight
Nautical Twilight
Astronomical Twilight
Moon
Length of Visible Light
Length of Day
Tomorrow will be .
, % of the Moon is Illuminated

Today's Extremes

Country Highs Country Lows

Community

WunderPhotos

Upload Photos

1,934,931 photos uploaded!

WunderBlog® & News

Nearby

Air Quality

  Air Quality AQ Index Pollutant
Not available.

Snow Depth

Station Depth Elevation

Earthquake Activity

City Distance Mag. Time & Date
Minimum magnitude displayed is 2.5.

Coastal Water Temperatures

Place Temperature

Stations

Nearby Weather Stations

Station Location Temp. Windchill Dew Point Humidity Wind Precip. Elev Updated Type